sensor_id;sensor_type;location;lat;lon;timestamp;temperature;humidity
4207;DHT22;2117;47.972;7.830;2022-10-23T01:30:58;12.60;99.90
4207;DHT22;2117;47.972;7.830;2022-10-23T01:33:37;12.80;99.90
4207;DHT22;2117;47.972;7.830;2022-10-23T01:36:07;12.80;99.90
4207;DHT22;2117;47.972;7.830;2022-10-23T01:38:43;12.80;99.90
4207;DHT22;2117;47.972;7.830;2022-10-23T01:41:17;12.80;99.90
4207;DHT22;2117;47.972;7.830;2022-10-23T01:43:48;12.70;99.90
4207;DHT22;2117;47.972;7.830;2022-10-23T01:46:16;12.70;99.90
4207;DHT22;2117;47.972;7.830;2022-10-23T01:48:46;12.70;99.90
4207;DHT22;2117;47.972;7.830;2022-10-23T01:51:16;12.60;99.90
4207;DHT22;2117;47.972;7.830;2022-10-23T01:53:44;12.60;99.90
4207;DHT22;2117;47.972;7.830;2022-10-23T01:56:14;12.60;99.90
4207;DHT22;2117;47.972;7.830;2022-10-23T01:58:47;12.60;99.90
4207;DHT22;2117;47.972;7.830;2022-10-23T02:01:14;12.60;99.90
4207;DHT22;2117;47.972;7.830;2022-10-23T02:03:43;12.60;99.90
4207;DHT22;2117;47.972;7.830;2022-10-23T02:06:08;12.60;99.90
4207;DHT22;2117;47.972;7.830;2022-10-23T02:08:34;12.60;99.90
4207;DHT22;2117;47.972;7.830;2022-10-23T02:11:09;12.60;99.90
4207;DHT22;2117;47.972;7.830;2022-10-23T02:16:38;12.60;99.90
4207;DHT22;2117;47.972;7.830;2022-10-23T02:19:24;12.60;99.90
4207;DHT22;2117;47.972;7.830;2022-10-23T02:22:09;12.60;99.90
4207;DHT22;2117;47.972;7.830;2022-10-23T02:24:44;12.60;99.90
4207;DHT22;2117;47.972;7.830;2022-10-23T02:27:15;12.50;99.90
4207;DHT22;2117;47.972;7.830;2022-10-23T02:29:43;12.50;99.90
4207;DHT22;2117;47.972;7.830;2022-10-23T02:32:10;12.50;99.90
4207;DHT22;2117;47.972;7.830;2022-10-23T02:34:36;12.50;99.90
4207;DHT22;2117;47.972;7.830;2022-10-23T02:37:02;12.50;99.90
4207;DHT22;2117;47.972;7.830;2022-10-23T02:39:28;12.50;99.90
4207;DHT22;2117;47.972;7.830;2022-10-23T02:44:46;12.50;99.90
4207;DHT22;2117;47.972;7.830;2022-10-23T02:50:12;12.40;99.90
4207;DHT22;2117;47.972;7.830;2022-10-23T02:58:23;12.30;99.90
4207;DHT22;2117;47.972;7.830;2022-10-23T03:01:15;12.30;99.90
4207;DHT22;2117;47.972;7.830;2022-10-23T03:03:53;12.30;99.90
4207;DHT22;2117;47.972;7.830;2022-10-23T03:06:22;12.20;99.90
4207;DHT22;2117;47.972;7.830;2022-10-23T03:08:52;12.20;99.90
4207;DHT22;2117;47.972;7.830;2022-10-23T03:11:18;12.20;99.90
4207;DHT22;2117;47.972;7.830;2022-10-23T03:13:44;12.30;99.90
4207;DHT22;2117;47.972;7.830;2022-10-23T03:16:09;12.20;99.90
4207;DHT22;2117;47.972;7.830;2022-10-23T03:18:35;12.20;99.90
4207;DHT22;2117;47.972;7.830;2022-10-23T03:21:00;12.20;99.90
4207;DHT22;2117;47.972;7.830;2022-10-23T03:23:26;12.20;99.90
4207;DHT22;2117;47.972;7.830;2022-10-23T03:25:52;12.20;99.90
4207;DHT22;2117;47.972;7.830;2022-10-23T03:28:18;12.20;99.90
4207;DHT22;2117;47.972;7.830;2022-10-23T03:30:44;12.20;99.90
4207;DHT22;2117;47.972;7.830;2022-10-23T03:33:10;12.10;99.90
4207;DHT22;2117;47.972;7.830;2022-10-23T03:35:35;12.10;99.90
4207;DHT22;2117;47.972;7.830;2022-10-23T03:38:01;12.10;99.90
4207;DHT22;2117;47.972;7.830;2022-10-23T03:40:27;12.10;99.90
4207;DHT22;2117;47.972;7.830;2022-10-23T03:42:52;12.10;99.90
4207;DHT22;2117;47.972;7.830;2022-10-23T03:45:18;12.10;99.90
4207;DHT22;2117;47.972;7.830;2022-10-23T03:47:43;12.00;99.90
4207;DHT22;2117;47.972;7.830;2022-10-23T03:50:11;12.00;99.90
4207;DHT22;2117;47.972;7.830;2022-10-23T03:52:38;12.00;99.90
4207;DHT22;2117;47.972;7.830;2022-10-23T03:55:04;12.00;99.90
4207;DHT22;2117;47.972;7.830;2022-10-23T03:57:30;12.00;99.90
4207;DHT22;2117;47.972;7.830;2022-10-23T03:59:55;12.00;99.90
4207;DHT22;2117;47.972;7.830;2022-10-23T04:02:21;12.00;99.90
4207;DHT22;2117;47.972;7.830;2022-10-23T04:04:46;12.00;99.90
4207;DHT22;2117;47.972;7.830;2022-10-23T04:07:12;12.00;99.90
4207;DHT22;2117;47.972;7.830;2022-10-23T04:09:38;11.90;99.90
4207;DHT22;2117;47.972;7.830;2022-10-23T04:12:03;11.90;99.90
4207;DHT22;2117;47.972;7.830;2022-10-23T04:14:29;11.90;99.90
4207;DHT22;2117;47.972;7.830;2022-10-23T04:16:55;11.90;99.90
4207;DHT22;2117;47.972;7.830;2022-10-23T04:19:20;11.90;99.90
4207;DHT22;2117;47.972;7.830;2022-10-23T04:21:46;11.90;99.90
4207;DHT22;2117;47.972;7.830;2022-10-23T04:24:11;11.90;99.90
4207;DHT22;2117;47.972;7.830;2022-10-23T04:26:37;11.90;99.90
4207;DHT22;2117;47.972;7.830;2022-10-23T04:29:02;11.80;99.90
4207;DHT22;2117;47.972;7.830;2022-10-23T04:31:28;11.80;99.90
4207;DHT22;2117;47.972;7.830;2022-10-23T04:33:53;11.80;99.90
4207;DHT22;2117;47.972;7.830;2022-10-23T04:36:19;11.80;99.90
4207;DHT22;2117;47.972;7.830;2022-10-23T04:38:44;11.80;99.90
4207;DHT22;2117;47.972;7.830;2022-10-23T04:41:10;11.80;99.90
4207;DHT22;2117;47.972;7.830;2022-10-23T04:43:36;11.80;99.90
4207;DHT22;2117;47.972;7.830;2022-10-23T04:46:01;11.70;99.90
4207;DHT22;2117;47.972;7.830;2022-10-23T04:48:27;11.70;99.90
4207;DHT22;2117;47.972;7.830;2022-10-23T04:50:57;11.70;99.90
4207;DHT22;2117;47.972;7.830;2022-10-23T04:53:24;11.60;99.90
4207;DHT22;2117;47.972;7.830;2022-10-23T04:55:54;11.60;99.90
4207;DHT22;2117;47.972;7.830;2022-10-23T04:58:21;11.60;99.90
4207;DHT22;2117;47.972;7.830;2022-10-23T05:00:47;11.50;99.90
4207;DHT22;2117;47.972;7.830;2022-10-23T05:03:15;11.50;99.90
4207;DHT22;2117;47.972;7.830;2022-10-23T05:05:41;11.50;99.90
4207;DHT22;2117;47.972;7.830;2022-10-23T05:08:07;11.50;99.90
4207;DHT22;2117;47.972;7.830;2022-10-23T05:10:33;11.50;99.90
4207;DHT22;2117;47.972;7.830;2022-10-23T05:12:59;11.50;99.90
4207;DHT22;2117;47.972;7.830;2022-10-23T05:15:25;11.40;99.90
4207;DHT22;2117;47.972;7.830;2022-10-23T05:17:54;11.50;99.90
4207;DHT22;2117;47.972;7.830;2022-10-23T05:20:25;11.40;99.90
4207;DHT22;2117;47.972;7.830;2022-10-23T05:22:54;11.30;99.90
4207;DHT22;2117;47.972;7.830;2022-10-23T05:25:21;11.40;99.90
4207;DHT22;2117;47.972;7.830;2022-10-23T05:27:46;11.40;99.90
4207;DHT22;2117;47.972;7.830;2022-10-23T05:30:12;11.40;99.90
4207;DHT22;2117;47.972;7.830;2022-10-23T05:32:38;11.40;99.90
4207;DHT22;2117;47.972;7.830;2022-10-23T05:35:07;11.50;99.90
4207;DHT22;2117;47.972;7.830;2022-10-23T05:37:35;11.40;99.90
4207;DHT22;2117;47.972;7.830;2022-10-23T05:40:01;11.40;99.90
4207;DHT22;2117;47.972;7.830;2022-10-23T05:42:27;11.40;99.90
4207;DHT22;2117;47.972;7.830;2022-10-23T05:47:18;11.40;99.90
4207;DHT22;2117;47.972;7.830;2022-10-23T05:49:44;11.40;99.90
4207;DHT22;2117;47.972;7.830;2022-10-23T05:52:10;11.40;99.90
4207;DHT22;2117;47.972;7.830;2022-10-23T05:54:36;11.40;99.90
4207;DHT22;2117;47.972;7.830;2022-10-23T05:59:28;11.40;99.90
4207;DHT22;2117;47.972;7.830;2022-10-23T06:01:54;11.40;99.90
4207;DHT22;2117;47.972;7.830;2022-10-23T06:04:22;11.40;99.90
4207;DHT22;2117;47.972;7.830;2022-10-23T06:06:48;11.60;99.90
4207;DHT22;2117;47.972;7.830;2022-10-23T06:09:14;11.60;99.90
4207;DHT22;2117;47.972;7.830;2022-10-23T06:11:40;11.60;99.90
4207;DHT22;2117;47.972;7.830;2022-10-23T06:14:06;11.50;99.90
4207;DHT22;2117;47.972;7.830;2022-10-23T06:16:32;11.60;99.90
4207;DHT22;2117;47.972;7.830;2022-10-23T06:18:57;11.60;99.90
4207;DHT22;2117;47.972;7.830;2022-10-23T06:21:23;11.60;99.90
4207;DHT22;2117;47.972;7.830;2022-10-23T06:23:49;11.50;99.90
4207;DHT22;2117;47.972;7.830;2022-10-23T06:26:16;11.60;99.90
4207;DHT22;2117;47.972;7.830;2022-10-23T06:28:42;11.60;99.90
4207;DHT22;2117;47.972;7.830;2022-10-23T06:31:13;11.70;99.90
4207;DHT22;2117;47.972;7.830;2022-10-23T06:33:40;11.70;99.90
4207;DHT22;2117;47.972;7.830;2022-10-23T06:36:06;11.70;99.90
4207;DHT22;2117;47.972;7.830;2022-10-23T06:38:35;11.70;99.90
4207;DHT22;2117;47.972;7.830;2022-10-23T06:41:03;11.80;99.90
4207;DHT22;2117;47.972;7.830;2022-10-23T06:43:29;11.80;99.90
4207;DHT22;2117;47.972;7.830;2022-10-23T06:45:54;11.80;99.90
4207;DHT22;2117;47.972;7.830;2022-10-23T06:48:20;11.80;99.90
4207;DHT22;2117;47.972;7.830;2022-10-23T06:50:45;11.80;99.90
4207;DHT22;2117;47.972;7.830;2022-10-23T06:53:11;11.90;99.90
4207;DHT22;2117;47.972;7.830;2022-10-23T06:55:37;11.90;99.90
4207;DHT22;2117;47.972;7.830;2022-10-23T06:58:05;11.90;99.90
4207;DHT22;2117;47.972;7.830;2022-10-23T07:00:36;11.80;99.90
4207;DHT22;2117;47.972;7.830;2022-10-23T07:03:02;11.90;99.90
4207;DHT22;2117;47.972;7.830;2022-10-23T07:05:28;11.90;99.90
4207;DHT22;2117;47.972;7.830;2022-10-23T07:07:53;11.90;99.90
4207;DHT22;2117;47.972;7.830;2022-10-23T07:10:19;12.00;99.90
4207;DHT22;2117;47.972;7.830;2022-10-23T07:12:44;12.00;99.90
4207;DHT22;2117;47.972;7.830;2022-10-23T07:15:11;12.00;99.90
4207;DHT22;2117;47.972;7.830;2022-10-23T07:17:37;12.00;99.90
4207;DHT22;2117;47.972;7.830;2022-10-23T07:20:03;12.10;99.90
4207;DHT22;2117;47.972;7.830;2022-10-23T07:22:28;12.10;99.90
4207;DHT22;2117;47.972;7.830;2022-10-23T07:24:54;12.20;99.90
4207;DHT22;2117;47.972;7.830;2022-10-23T07:27:19;12.20;99.90
4207;DHT22;2117;47.972;7.830;2022-10-23T07:29:49;12.30;99.90
4207;DHT22;2117;47.972;7.830;2022-10-23T07:32:14;12.30;99.90
4207;DHT22;2117;47.972;7.830;2022-10-23T07:34:40;12.40;99.90
4207;DHT22;2117;47.972;7.830;2022-10-23T07:37:05;12.40;99.90
4207;DHT22;2117;47.972;7.830;2022-10-23T07:39:31;12.40;99.90
4207;DHT22;2117;47.972;7.830;2022-10-23T07:41:56;12.50;99.90
4207;DHT22;2117;47.972;7.830;2022-10-23T07:44:22;12.50;99.90
4207;DHT22;2117;47.972;7.830;2022-10-23T07:46:48;12.50;99.90
4207;DHT22;2117;47.972;7.830;2022-10-23T07:49:13;12.50;99.90
4207;DHT22;2117;47.972;7.830;2022-10-23T07:51:39;12.60;99.90
4207;DHT22;2117;47.972;7.830;2022-10-23T07:54:06;12.70;99.90
4207;DHT22;2117;47.972;7.830;2022-10-23T07:56:32;12.70;99.90
4207;DHT22;2117;47.972;7.830;2022-10-23T07:58:57;12.80;99.90
4207;DHT22;2117;47.972;7.830;2022-10-23T08:01:30;12.90;99.90
4207;DHT22;2117;47.972;7.830;2022-10-23T08:03:56;12.90;99.90
4207;DHT22;2117;47.972;7.830;2022-10-23T08:06:21;13.00;99.90
4207;DHT22;2117;47.972;7.830;2022-10-23T08:08:47;13.10;99.90
4207;DHT22;2117;47.972;7.830;2022-10-23T08:11:14;13.20;99.90
4207;DHT22;2117;47.972;7.830;2022-10-23T08:13:40;13.20;99.90
4207;DHT22;2117;47.972;7.830;2022-10-23T08:16:06;13.30;99.90
4207;DHT22;2117;47.972;7.830;2022-10-23T08:18:32;13.30;99.90
4207;DHT22;2117;47.972;7.830;2022-10-23T08:21:02;13.40;99.90
4207;DHT22;2117;47.972;7.830;2022-10-23T08:23:28;13.50;99.90
4207;DHT22;2117;47.972;7.830;2022-10-23T08:26:01;13.50;99.90
4207;DHT22;2117;47.972;7.830;2022-10-23T08:28:28;13.70;99.90
4207;DHT22;2117;47.972;7.830;2022-10-23T08:30:54;13.80;99.90
4207;DHT22;2117;47.972;7.830;2022-10-23T08:33:20;13.90;99.90
4207;DHT22;2117;47.972;7.830;2022-10-23T08:35:45;14.00;99.90
4207;DHT22;2117;47.972;7.830;2022-10-23T08:38:11;14.10;99.90
4207;DHT22;2117;47.972;7.830;2022-10-23T08:40:37;14.20;99.90
4207;DHT22;2117;47.972;7.830;2022-10-23T08:45:52;14.40;99.90
4207;DHT22;2117;47.972;7.830;2022-10-23T08:48:50;14.50;99.90
4207;DHT22;2117;47.972;7.830;2022-10-23T08:51:43;14.70;99.90
4207;DHT22;2117;47.972;7.830;2022-10-23T08:54:13;14.70;99.90
4207;DHT22;2117;47.972;7.830;2022-10-23T08:56:41;14.80;99.90
4207;DHT22;2117;47.972;7.830;2022-10-23T08:59:31;14.90;99.90
4207;DHT22;2117;47.972;7.830;2022-10-23T09:02:03;15.00;99.90
4207;DHT22;2117;47.972;7.830;2022-10-23T09:04:34;15.10;99.90
4207;DHT22;2117;47.972;7.830;2022-10-23T09:10:29;15.30;99.90
4207;DHT22;2117;47.972;7.830;2022-10-23T09:18:45;15.60;99.90
4207;DHT22;2117;47.972;7.830;2022-10-23T09:21:12;15.70;99.90
4207;DHT22;2117;47.972;7.830;2022-10-23T09:23:38;15.70;99.90
4207;DHT22;2117;47.972;7.830;2022-10-23T09:26:13;15.80;99.90
4207;DHT22;2117;47.972;7.830;2022-10-23T09:28:56;15.90;99.90
4207;DHT22;2117;47.972;7.830;2022-10-23T09:31:26;16.00;99.90
4207;DHT22;2117;47.972;7.830;2022-10-23T09:33:56;16.10;99.90
4207;DHT22;2117;47.972;7.830;2022-10-23T09:36:23;16.20;99.90
4207;DHT22;2117;47.972;7.830;2022-10-23T09:38:52;16.20;99.90
4207;DHT22;2117;47.972;7.830;2022-10-23T09:41:25;16.30;99.90
4207;DHT22;2117;47.972;7.830;2022-10-23T09:46:37;16.50;99.90
4207;DHT22;2117;47.972;7.830;2022-10-23T09:49:03;16.60;99.90
4207;DHT22;2117;47.972;7.830;2022-10-23T09:51:29;16.70;99.90
4207;DHT22;2117;47.972;7.830;2022-10-23T09:53:56;16.80;99.90
4207;DHT22;2117;47.972;7.830;2022-10-23T09:59:03;17.00;99.90
4207;DHT22;2117;47.972;7.830;2022-10-23T10:01:32;17.10;99.90
4207;DHT22;2117;47.972;7.830;2022-10-23T10:04:01;17.10;99.90
4207;DHT22;2117;47.972;7.830;2022-10-23T10:06:31;17.20;99.90
4207;DHT22;2117;47.972;7.830;2022-10-23T10:09:04;17.30;99.90
4207;DHT22;2117;47.972;7.830;2022-10-23T10:11:40;17.50;99.90
4207;DHT22;2117;47.972;7.830;2022-10-23T10:22:15;17.90;99.90
4207;DHT22;2117;47.972;7.830;2022-10-23T10:24:56;17.90;99.90
4207;DHT22;2117;47.972;7.830;2022-10-23T10:27:47;18.10;99.90
4207;DHT22;2117;47.972;7.830;2022-10-23T10:30:21;18.20;99.90
4207;DHT22;2117;47.972;7.830;2022-10-23T10:35:51;18.30;99.90
4207;DHT22;2117;47.972;7.830;2022-10-23T10:44:04;18.70;99.90
4207;DHT22;2117;47.972;7.830;2022-10-23T10:46:49;18.90;99.90
4207;DHT22;2117;47.972;7.830;2022-10-23T10:49:25;18.90;99.90
4207;DHT22;2117;47.972;7.830;2022-10-23T10:57:32;19.20;99.90
4207;DHT22;2117;47.972;7.830;2022-10-23T11:02:53;19.40;99.90
4207;DHT22;2117;47.972;7.830;2022-10-23T11:08:03;19.60;99.90
4207;DHT22;2117;47.972;7.830;2022-10-23T11:10:30;19.70;99.90
4207;DHT22;2117;47.972;7.830;2022-10-23T11:12:56;19.80;99.90
4207;DHT22;2117;47.972;7.830;2022-10-23T11:15:36;19.90;99.90
4207;DHT22;2117;47.972;7.830;2022-10-23T11:18:10;20.00;99.90
4207;DHT22;2117;47.972;7.830;2022-10-23T11:20:58;20.00;99.90
4207;DHT22;2117;47.972;7.830;2022-10-23T11:23:56;20.10;99.90
4207;DHT22;2117;47.972;7.830;2022-10-23T11:37:31;20.50;99.90
4207;DHT22;2117;47.972;7.830;2022-10-23T11:40:15;20.70;99.90
4207;DHT22;2117;47.972;7.830;2022-10-23T11:45:33;21.20;99.90
4207;DHT22;2117;47.972;7.830;2022-10-23T11:50:48;21.40;99.90
4207;DHT22;2117;47.972;7.830;2022-10-23T11:58:56;22.00;99.90
4207;DHT22;2117;47.972;7.830;2022-10-23T12:01:39;22.20;99.90
4207;DHT22;2117;47.972;7.830;2022-10-23T12:04:22;22.50;99.90
4207;DHT22;2117;47.972;7.830;2022-10-23T12:06:57;22.80;99.90
4207;DHT22;2117;47.972;7.830;2022-10-23T12:09:29;23.10;99.90
4207;DHT22;2117;47.972;7.830;2022-10-23T12:14:39;23.70;99.90
4207;DHT22;2117;47.972;7.830;2022-10-23T12:19:51;24.00;99.90
4207;DHT22;2117;47.972;7.830;2022-10-23T12:22:17;24.00;99.90
4207;DHT22;2117;47.972;7.830;2022-10-23T12:30:33;24.40;99.90
4207;DHT22;2117;47.972;7.830;2022-10-23T12:38:25;24.40;99.90
4207;DHT22;2117;47.972;7.830;2022-10-23T12:41:09;24.60;99.90
4207;DHT22;2117;47.972;7.830;2022-10-23T12:43:37;24.80;99.90
4207;DHT22;2117;47.972;7.830;2022-10-23T12:48:50;24.70;99.90
4207;DHT22;2117;47.972;7.830;2022-10-23T12:51:33;24.50;99.90
4207;DHT22;2117;47.972;7.830;2022-10-23T12:54:00;24.30;99.90
4207;DHT22;2117;47.972;7.830;2022-10-23T12:56:27;24.20;99.90
4207;DHT22;2117;47.972;7.830;2022-10-23T12:58:58;24.10;99.90
4207;DHT22;2117;47.972;7.830;2022-10-23T13:01:32;24.00;99.90
4207;DHT22;2117;47.972;7.830;2022-10-23T13:06:35;24.10;99.90
4207;DHT22;2117;47.972;7.830;2022-10-23T13:09:02;24.10;99.90
4207;DHT22;2117;47.972;7.830;2022-10-23T13:11:29;24.00;99.90
4207;DHT22;2117;47.972;7.830;2022-10-23T13:13:55;24.00;99.90
4207;DHT22;2117;47.972;7.830;2022-10-23T13:16:22;23.90;99.90
4207;DHT22;2117;47.972;7.830;2022-10-23T13:18:48;23.90;99.90
4207;DHT22;2117;47.972;7.830;2022-10-23T13:21:23;24.00;99.90
4207;DHT22;2117;47.972;7.830;2022-10-23T13:23:50;24.00;99.90
4207;DHT22;2117;47.972;7.830;2022-10-23T13:26:38;24.00;99.90
4207;DHT22;2117;47.972;7.830;2022-10-23T13:31:46;23.70;99.90
4207;DHT22;2117;47.972;7.830;2022-10-23T13:34:21;23.70;99.90
4207;DHT22;2117;47.972;7.830;2022-10-23T13:37:00;23.60;99.90
4207;DHT22;2117;47.972;7.830;2022-10-23T13:39:28;23.70;99.90
4207;DHT22;2117;47.972;7.830;2022-10-23T13:41:56;23.70;99.90
4207;DHT22;2117;47.972;7.830;2022-10-23T13:44:24;23.60;99.90
4207;DHT22;2117;47.972;7.830;2022-10-23T13:46:50;23.60;99.90
4207;DHT22;2117;47.972;7.830;2022-10-23T13:49:17;23.60;99.90
4207;DHT22;2117;47.972;7.830;2022-10-23T13:51:54;23.70;99.90
4207;DHT22;2117;47.972;7.830;2022-10-23T13:54:25;24.00;99.90
4207;DHT22;2117;47.972;7.830;2022-10-23T13:56:53;24.30;99.90
4207;DHT22;2117;47.972;7.830;2022-10-23T13:59:19;24.50;99.90
4207;DHT22;2117;47.972;7.830;2022-10-23T14:01:46;24.40;99.90
4207;DHT22;2117;47.972;7.830;2022-10-23T14:04:13;24.30;99.90
4207;DHT22;2117;47.972;7.830;2022-10-23T14:06:39;24.20;99.90
4207;DHT22;2117;47.972;7.830;2022-10-23T14:09:06;24.40;99.90
4207;DHT22;2117;47.972;7.830;2022-10-23T14:11:32;24.40;99.90
4207;DHT22;2117;47.972;7.830;2022-10-23T14:13:58;24.50;99.90
4207;DHT22;2117;47.972;7.830;2022-10-23T14:16:25;24.70;99.90
4207;DHT22;2117;47.972;7.830;2022-10-23T14:18:51;24.90;99.90
4207;DHT22;2117;47.972;7.830;2022-10-23T14:21:18;25.00;99.90
4207;DHT22;2117;47.972;7.830;2022-10-23T14:23:45;25.10;99.90
4207;DHT22;2117;47.972;7.830;2022-10-23T14:26:13;25.00;99.90
4207;DHT22;2117;47.972;7.830;2022-10-23T14:28:39;25.00;99.90
4207;DHT22;2117;47.972;7.830;2022-10-23T14:31:10;25.00;99.90
4207;DHT22;2117;47.972;7.830;2022-10-23T14:33:36;25.00;99.90
4207;DHT22;2117;47.972;7.830;2022-10-23T14:36:01;24.90;99.90
4207;DHT22;2117;47.972;7.830;2022-10-23T14:38:27;24.80;99.90
4207;DHT22;2117;47.972;7.830;2022-10-23T14:40:52;24.80;99.90
4207;DHT22;2117;47.972;7.830;2022-10-23T14:43:18;24.80;99.90
4207;DHT22;2117;47.972;7.830;2022-10-23T14:45:43;24.70;99.90
4207;DHT22;2117;47.972;7.830;2022-10-23T14:48:09;24.70;99.90
4207;DHT22;2117;47.972;7.830;2022-10-23T14:50:36;24.60;99.90
4207;DHT22;2117;47.972;7.830;2022-10-23T14:53:02;24.40;99.90
4207;DHT22;2117;47.972;7.830;2022-10-23T14:55:29;24.30;99.90
4207;DHT22;2117;47.972;7.830;2022-10-23T14:57:55;24.30;99.90
4207;DHT22;2117;47.972;7.830;2022-10-23T15:00:21;24.20;99.90
4207;DHT22;2117;47.972;7.830;2022-10-23T15:02:47;24.10;99.90
4207;DHT22;2117;47.972;7.830;2022-10-23T15:05:13;23.80;99.90
4207;DHT22;2117;47.972;7.830;2022-10-23T15:07:38;23.80;99.90
4207;DHT22;2117;47.972;7.830;2022-10-23T15:10:05;23.60;99.90
4207;DHT22;2117;47.972;7.830;2022-10-23T15:12:31;23.50;99.90
4207;DHT22;2117;47.972;7.830;2022-10-23T15:14:56;23.30;99.90
4207;DHT22;2117;47.972;7.830;2022-10-23T15:17:22;23.20;99.90
4207;DHT22;2117;47.972;7.830;2022-10-23T15:19:47;23.10;99.90
4207;DHT22;2117;47.972;7.830;2022-10-23T15:22:13;23.00;99.90
4207;DHT22;2117;47.972;7.830;2022-10-23T15:24:38;22.90;99.90
4207;DHT22;2117;47.972;7.830;2022-10-23T15:27:04;22.80;99.90
4207;DHT22;2117;47.972;7.830;2022-10-23T15:29:29;22.70;99.90
4207;DHT22;2117;47.972;7.830;2022-10-23T15:31:58;22.50;99.90
4207;DHT22;2117;47.972;7.830;2022-10-23T15:34:27;22.40;99.90
4207;DHT22;2117;47.972;7.830;2022-10-23T15:36:54;22.30;99.90
4207;DHT22;2117;47.972;7.830;2022-10-23T15:39:23;22.10;99.90
4207;DHT22;2117;47.972;7.830;2022-10-23T15:41:51;22.00;99.90
4207;DHT22;2117;47.972;7.830;2022-10-23T15:44:19;21.90;99.90
4207;DHT22;2117;47.972;7.830;2022-10-23T15:46:45;21.70;99.90
4207;DHT22;2117;47.972;7.830;2022-10-23T15:49:12;21.60;99.90
4207;DHT22;2117;47.972;7.830;2022-10-23T15:51:38;21.50;99.90
4207;DHT22;2117;47.972;7.830;2022-10-23T15:54:05;21.40;99.90
4207;DHT22;2117;47.972;7.830;2022-10-23T15:56:32;21.30;99.90
4207;DHT22;2117;47.972;7.830;2022-10-23T15:58:58;21.20;99.90
4207;DHT22;2117;47.972;7.830;2022-10-23T16:01:23;21.10;99.90
4207;DHT22;2117;47.972;7.830;2022-10-23T16:03:49;21.00;99.90
4207;DHT22;2117;47.972;7.830;2022-10-23T16:06:16;20.90;99.90
4207;DHT22;2117;47.972;7.830;2022-10-23T16:08:41;20.80;99.90
4207;DHT22;2117;47.972;7.830;2022-10-23T16:11:15;20.80;99.90
4207;DHT22;2117;47.972;7.830;2022-10-23T16:13:41;20.70;99.90
4207;DHT22;2117;47.972;7.830;2022-10-23T16:16:07;20.60;99.90
4207;DHT22;2117;47.972;7.830;2022-10-23T16:18:33;20.60;99.90
4207;DHT22;2117;47.972;7.830;2022-10-23T16:20:59;20.40;99.90
4207;DHT22;2117;47.972;7.830;2022-10-23T16:23:24;20.30;99.90
4207;DHT22;2117;47.972;7.830;2022-10-23T16:25:53;20.30;99.90
4207;DHT22;2117;47.972;7.830;2022-10-23T16:28:18;20.20;99.90
4207;DHT22;2117;47.972;7.830;2022-10-23T16:30:44;20.20;99.90
4207;DHT22;2117;47.972;7.830;2022-10-23T16:33:11;20.10;99.90
4207;DHT22;2117;47.972;7.830;2022-10-23T16:35:37;20.00;99.90
4207;DHT22;2117;47.972;7.830;2022-10-23T16:38:03;20.00;99.90
4207;DHT22;2117;47.972;7.830;2022-10-23T16:40:29;19.90;99.90
4207;DHT22;2117;47.972;7.830;2022-10-23T16:42:56;19.80;99.90
4207;DHT22;2117;47.972;7.830;2022-10-23T16:45:22;19.80;99.90
4207;DHT22;2117;47.972;7.830;2022-10-23T16:47:47;19.70;99.90
4207;DHT22;2117;47.972;7.830;2022-10-23T16:50:13;19.80;99.90
4207;DHT22;2117;47.972;7.830;2022-10-23T16:52:40;19.70;99.90
4207;DHT22;2117;47.972;7.830;2022-10-23T16:55:06;19.60;99.90
4207;DHT22;2117;47.972;7.830;2022-10-23T16:57:33;19.60;99.90
4207;DHT22;2117;47.972;7.830;2022-10-23T16:59:59;19.50;99.90
4207;DHT22;2117;47.972;7.830;2022-10-23T17:02:24;19.50;99.90
4207;DHT22;2117;47.972;7.830;2022-10-23T17:04:50;19.40;99.90
4207;DHT22;2117;47.972;7.830;2022-10-23T17:07:15;19.30;99.90
4207;DHT22;2117;47.972;7.830;2022-10-23T17:09:43;19.30;99.90
4207;DHT22;2117;47.972;7.830;2022-10-23T17:12:09;19.30;99.90
4207;DHT22;2117;47.972;7.830;2022-10-23T17:14:34;19.30;99.90
4207;DHT22;2117;47.972;7.830;2022-10-23T17:17:00;19.30;99.90
4207;DHT22;2117;47.972;7.830;2022-10-23T17:19:26;19.30;99.90
4207;DHT22;2117;47.972;7.830;2022-10-23T17:21:54;19.20;99.90
4207;DHT22;2117;47.972;7.830;2022-10-23T17:24:20;19.20;99.90
4207;DHT22;2117;47.972;7.830;2022-10-23T17:26:46;19.20;99.90
4207;DHT22;2117;47.972;7.830;2022-10-23T17:29:13;19.30;99.90
4207;DHT22;2117;47.972;7.830;2022-10-23T17:31:41;19.70;99.90
4207;DHT22;2117;47.972;7.830;2022-10-23T17:34:10;20.30;99.90
4207;DHT22;2117;47.972;7.830;2022-10-23T17:36:40;20.60;99.90
4207;DHT22;2117;47.972;7.830;2022-10-23T17:39:11;20.80;99.90
4207;DHT22;2117;47.972;7.830;2022-10-23T17:41:38;21.00;99.90
4207;DHT22;2117;47.972;7.830;2022-10-23T17:44:03;21.20;99.90
4207;DHT22;2117;47.972;7.830;2022-10-23T17:46:29;21.30;99.90
4207;DHT22;2117;47.972;7.830;2022-10-23T17:48:56;21.40;99.90
4207;DHT22;2117;47.972;7.830;2022-10-23T17:51:24;21.50;99.90
4207;DHT22;2117;47.972;7.830;2022-10-23T17:53:52;21.60;99.90
4207;DHT22;2117;47.972;7.830;2022-10-23T17:56:23;21.60;99.90
4207;DHT22;2117;47.972;7.830;2022-10-23T17:58:51;21.70;99.90
4207;DHT22;2117;47.972;7.830;2022-10-23T18:01:22;21.80;99.90
4207;DHT22;2117;47.972;7.830;2022-10-23T18:03:49;21.80;99.90
4207;DHT22;2117;47.972;7.830;2022-10-23T18:06:17;21.90;99.90
4207;DHT22;2117;47.972;7.830;2022-10-23T18:08:44;21.90;99.90
4207;DHT22;2117;47.972;7.830;2022-10-23T18:11:16;21.90;99.90
4207;DHT22;2117;47.972;7.830;2022-10-23T18:13:42;21.90;99.90
4207;DHT22;2117;47.972;7.830;2022-10-23T18:16:07;22.10;99.90
4207;DHT22;2117;47.972;7.830;2022-10-23T18:18:36;22.10;99.90
4207;DHT22;2117;47.972;7.830;2022-10-23T18:21:02;22.30;99.90
4207;DHT22;2117;47.972;7.830;2022-10-23T18:23:29;22.30;99.90
4207;DHT22;2117;47.972;7.830;2022-10-23T18:25:55;22.30;99.90
4207;DHT22;2117;47.972;7.830;2022-10-23T18:28:21;22.30;99.90
4207;DHT22;2117;47.972;7.830;2022-10-23T18:30:47;22.30;99.90
4207;DHT22;2117;47.972;7.830;2022-10-23T18:33:14;22.30;99.90
4207;DHT22;2117;47.972;7.830;2022-10-23T18:35:40;22.20;99.90
4207;DHT22;2117;47.972;7.830;2022-10-23T18:38:05;22.10;99.90
4207;DHT22;2117;47.972;7.830;2022-10-23T18:40:32;22.10;99.90
4207;DHT22;2117;47.972;7.830;2022-10-23T18:42:58;22.10;99.90
4207;DHT22;2117;47.972;7.830;2022-10-23T18:45:24;22.10;99.90
4207;DHT22;2117;47.972;7.830;2022-10-23T18:47:49;22.10;99.90
4207;DHT22;2117;47.972;7.830;2022-10-23T18:50:15;22.10;99.90
4207;DHT22;2117;47.972;7.830;2022-10-23T18:52:41;22.10;99.90
4207;DHT22;2117;47.972;7.830;2022-10-23T18:55:07;22.00;99.90
4207;DHT22;2117;47.972;7.830;2022-10-23T18:57:34;22.00;99.90
4207;DHT22;2117;47.972;7.830;2022-10-23T19:00:00;22.00;99.90
4207;DHT22;2117;47.972;7.830;2022-10-23T19:02:26;22.00;99.90
4207;DHT22;2117;47.972;7.830;2022-10-23T19:04:52;22.00;99.90
4207;DHT22;2117;47.972;7.830;2022-10-23T19:07:17;22.00;99.90
4207;DHT22;2117;47.972;7.830;2022-10-23T19:09:43;22.00;99.90
4207;DHT22;2117;47.972;7.830;2022-10-23T19:12:10;22.00;99.90
4207;DHT22;2117;47.972;7.830;2022-10-23T19:14:35;22.00;99.90
4207;DHT22;2117;47.972;7.830;2022-10-23T19:17:08;22.00;99.90
4207;DHT22;2117;47.972;7.830;2022-10-23T19:19:41;22.10;99.90
4207;DHT22;2117;47.972;7.830;2022-10-23T19:22:08;22.10;99.90
4207;DHT22;2117;47.972;7.830;2022-10-23T19:25:29;22.10;99.90
4207;DHT22;2117;47.972;7.830;2022-10-23T19:27:37;22.10;99.90
4207;DHT22;2117;47.972;7.830;2022-10-23T19:30:04;22.10;99.90